createdAt,value
2019-02-28T00:01:11.834Z,17.83
2019-02-28T00:03:36.291Z,17.47
2019-02-28T00:06:03.283Z,18.77
2019-02-28T00:08:30.331Z,19.30
2019-02-28T00:10:57.586Z,19.67
2019-02-28T00:13:24.634Z,18.70
2019-02-28T00:15:51.688Z,19.13
2019-02-28T00:18:18.936Z,16.23
2019-02-28T00:20:45.990Z,13.70
2019-02-28T00:23:13.034Z,13.33
2019-02-28T00:25:40.083Z,13.80
2019-02-28T00:28:07.148Z,15.63
2019-02-28T00:30:34.186Z,12.70
2019-02-28T00:33:01.229Z,14.73
2019-02-28T00:35:28.282Z,12.73
2019-02-28T00:37:56.657Z,13.87
2019-02-28T00:40:22.374Z,14.80
2019-02-28T00:42:50.737Z,14.17
2019-02-28T00:45:16.578Z,15.53
2019-02-28T00:47:43.621Z,15.10
2019-02-28T00:50:10.669Z,15.53
2019-02-28T00:52:37.723Z,14.13
2019-02-28T00:55:04.767Z,15.83
2019-02-28T00:57:32.532Z,16.43
2019-02-28T01:00:04.964Z,15.23
2019-02-28T01:02:28.480Z,15.07
2019-02-28T01:04:55.523Z,14.33
2019-02-28T01:07:22.572Z,13.27
2019-02-28T01:09:49.624Z,11.03
2019-02-28T01:12:19.395Z,12.70
2019-02-28T01:14:43.817Z,13.73
2019-02-28T01:17:10.866Z,13.70
2019-02-28T01:19:41.296Z,15.93
2019-02-28T01:22:06.704Z,14.57
2019-02-28T01:24:34.761Z,14.50
2019-02-28T01:27:00.908Z,13.67
2019-02-28T01:29:27.952Z,12.87
2019-02-28T01:31:55.002Z,11.80
2019-02-28T01:34:22.001Z,12.77
2019-02-28T01:36:50.531Z,12.00
2019-02-28T01:39:17.584Z,12.40
2019-02-28T01:41:45.290Z,15.17
2019-02-28T01:44:13.734Z,14.63
2019-02-28T01:46:40.773Z,15.60
2019-02-28T01:49:07.822Z,13.10
2019-02-28T01:51:36.811Z,13.33
2019-02-28T01:54:03.147Z,14.43
2019-02-28T01:56:30.198Z,14.30
2019-02-28T01:58:57.249Z,14.73
2019-02-28T02:01:24.302Z,13.70
2019-02-28T02:03:51.295Z,14.33
2019-02-28T02:06:18.288Z,15.30
2019-02-28T02:08:45.279Z,14.93
2019-02-28T02:11:13.161Z,16.47
2019-02-28T02:13:40.156Z,16.20
2019-02-28T02:16:07.201Z,14.67
2019-02-28T02:18:34.619Z,15.60
2019-02-28T02:21:02.935Z,15.23
2019-02-28T02:23:29.988Z,14.97
2019-02-28T02:25:57.033Z,15.87
2019-02-28T02:28:26.652Z,15.60
2019-02-28T02:30:52.245Z,15.67
2019-02-28T02:33:18.386Z,15.17
2019-02-28T02:35:45.440Z,15.73
2019-02-28T02:38:12.483Z,15.53
2019-02-28T02:40:39.550Z,16.00
2019-02-28T02:43:06.586Z,15.73
2019-02-28T02:45:33.529Z,15.50
2019-02-28T02:48:05.118Z,14.77
2019-02-28T02:50:34.412Z,15.97
2019-02-28T02:52:55.897Z,15.30
2019-02-28T02:55:27.550Z,17.53
2019-02-28T02:58:08.969Z,16.33
2019-02-28T03:00:35.993Z,16.83
2019-02-28T03:03:06.115Z,16.50
2019-02-28T03:05:34.940Z,16.57
2019-02-28T03:07:59.810Z,17.20
2019-02-28T03:10:26.131Z,17.73
2019-02-28T03:12:53.127Z,18.97
2019-02-28T03:15:25.190Z,17.70
2019-02-28T03:18:07.580Z,18.50
2019-02-28T03:20:55.363Z,17.80
2019-02-28T03:23:22.438Z,16.97
2019-02-28T03:25:49.486Z,17.03
2019-02-28T03:28:16.531Z,18.33
2019-02-28T03:30:43.588Z,18.63
2019-02-28T03:33:24.238Z,17.33
2019-02-28T03:35:43.113Z,18.53
2019-02-28T03:38:10.442Z,20.50
2019-02-28T03:40:39.925Z,14.67
2019-02-28T03:43:05.211Z,17.73
2019-02-28T03:45:33.918Z,18.17
2019-02-28T03:47:58.363Z,17.93
2019-02-28T03:50:22.385Z,16.63
2019-02-28T03:52:50.499Z,17.03
2019-02-28T03:55:17.648Z,15.30
2019-02-28T03:57:44.648Z,18.63
2019-02-28T04:00:11.747Z,17.90
2019-02-28T04:02:38.794Z,17.70
2019-02-28T04:05:05.944Z,17.37
2019-02-28T04:07:34.695Z,16.93
2019-02-28T04:10:00.301Z,16.60
2019-02-28T04:12:27.405Z,17.27
2019-02-28T04:14:54.451Z,18.13
2019-02-28T04:17:21.494Z,16.00
2019-02-28T04:19:48.544Z,19.20
2019-02-28T04:22:19.507Z,19.17
2019-02-28T04:24:46.386Z,17.83
2019-02-28T04:27:09.911Z,17.17
2019-02-28T04:29:36.942Z,17.37
2019-02-28T04:32:03.990Z,16.70
2019-02-28T04:34:31.043Z,17.63
2019-02-28T04:36:58.088Z,20.23
2019-02-28T04:39:25.039Z,18.60
2019-02-28T04:41:52.084Z,16.90
2019-02-28T04:44:19.152Z,17.73
2019-02-28T04:46:46.183Z,17.33
2019-02-28T04:49:13.187Z,18.93
2019-02-28T04:51:41.063Z,18.83
2019-02-28T04:54:07.426Z,18.80
2019-02-28T04:56:34.479Z,18.00
2019-02-28T04:59:27.834Z,19.77
2019-02-28T05:02:19.738Z,17.90
2019-02-28T05:05:05.860Z,20.00
2019-02-28T05:07:43.643Z,21.70
2019-02-28T05:10:10.723Z,18.10
2019-02-28T05:12:40.030Z,18.83
2019-02-28T05:15:05.736Z,18.27
2019-02-28T05:17:32.726Z,20.97
2019-02-28T05:19:59.732Z,19.80
2019-02-28T05:22:27.564Z,18.37
2019-02-28T05:24:53.949Z,20.03
2019-02-28T05:27:20.979Z,19.53
2019-02-28T05:29:47.984Z,20.43
2019-02-28T05:32:14.979Z,17.23
2019-02-28T05:34:42.021Z,18.03
2019-02-28T05:37:12.155Z,17.60
2019-02-28T05:39:36.127Z,19.30
2019-02-28T05:42:03.171Z,24.00
2019-02-28T05:44:30.163Z,26.80
2019-02-28T05:46:58.100Z,23.83
2019-02-28T05:49:24.417Z,22.27
2019-02-28T05:51:51.463Z,23.90
2019-02-28T05:54:18.534Z,23.30
2019-02-28T05:56:45.522Z,21.67
2019-02-28T05:59:12.513Z,22.03
2019-02-28T06:01:39.556Z,22.33
2019-02-28T06:04:06.604Z,22.60
2019-02-28T06:06:33.665Z,22.10
2019-02-28T06:09:00.808Z,23.70
2019-02-28T06:11:34.580Z,22.00
2019-02-28T06:13:56.846Z,20.13
2019-02-28T06:16:23.998Z,20.50
2019-02-28T06:18:52.074Z,17.93
2019-02-28T06:21:19.022Z,22.50
2019-02-28T06:23:46.185Z,21.73
2019-02-28T06:26:13.214Z,24.20
2019-02-28T06:28:40.224Z,33.03
2019-02-28T06:31:07.317Z,63.43
2019-02-28T06:33:34.432Z,55.87
2019-02-28T06:36:29.120Z,25.07
2019-02-28T06:39:26.762Z,18.70
2019-02-28T06:42:20.485Z,21.57
2019-02-28T06:44:58.727Z,20.37
2019-02-28T06:47:26.934Z,21.53
2019-02-28T06:49:55.572Z,22.80
2019-02-28T06:52:25.221Z,25.93
2019-02-28T06:54:50.571Z,15.77
2019-02-28T06:57:17.639Z,20.27
2019-02-28T06:59:44.662Z,23.27
2019-02-28T07:02:11.745Z,25.37
2019-02-28T07:04:38.915Z,27.67
2019-02-28T07:07:07.421Z,18.20
2019-02-28T07:09:33.558Z,22.80
2019-02-28T07:12:00.703Z,23.73
2019-02-28T07:14:51.240Z,17.27
2019-02-28T07:17:46.205Z,22.57
2019-02-28T07:20:35.111Z,22.50
2019-02-28T07:23:26.621Z,21.70
2019-02-28T07:25:52.474Z,11.50
2019-02-28T07:28:18.683Z,22.50
2019-02-28T07:30:45.747Z,22.43
2019-02-28T07:33:12.797Z,20.87
2019-02-28T07:35:39.830Z,20.90
2019-02-28T07:38:06.882Z,22.53
2019-02-28T07:40:33.947Z,9.33
2019-02-28T07:43:00.974Z,18.30
2019-02-28T07:45:29.606Z,22.13
2019-02-28T07:47:55.279Z,24.13
2019-02-28T07:50:22.309Z,20.37
2019-02-28T07:52:50.307Z,17.50
2019-02-28T07:55:17.778Z,19.40
2019-02-28T07:57:44.869Z,17.67
2019-02-28T08:00:36.347Z,22.40
2019-02-28T08:03:26.315Z,21.40
2019-02-28T08:05:53.462Z,18.27
2019-02-28T08:08:23.387Z,18.77
2019-02-28T08:10:49.219Z,17.20
2019-02-28T08:13:14.818Z,12.10
2019-02-28T08:15:41.862Z,21.30
2019-02-28T08:18:09.284Z,18.67
2019-02-28T08:20:36.384Z,22.30
2019-02-28T08:23:03.422Z,38.67
2019-02-28T08:25:55.542Z,24.73
2019-02-28T08:28:22.810Z,12.93
2019-02-28T08:30:54.969Z,35.43
2019-02-28T08:33:17.234Z,23.83
2019-02-28T08:35:44.259Z,18.07
2019-02-28T08:38:11.387Z,23.23
2019-02-28T08:40:38.682Z,25.53
2019-02-28T08:43:05.663Z,23.17
2019-02-28T08:45:33.557Z,26.90
2019-02-28T08:48:00.014Z,34.27
2019-02-28T08:50:27.063Z,28.20
2019-02-28T08:52:54.115Z,28.50
2019-02-28T08:55:28.350Z,27.77
2019-02-28T08:58:17.009Z,23.63
2019-02-28T09:00:44.030Z,26.10
2019-02-28T09:03:11.386Z,24.77
2019-02-28T09:05:38.439Z,26.27
2019-02-28T09:08:05.484Z,26.63
2019-02-28T09:10:32.560Z,25.70
2019-02-28T09:12:59.685Z,24.87
2019-02-28T09:15:30.152Z,25.67
2019-02-28T09:17:58.171Z,25.10
2019-02-28T09:20:21.137Z,25.10
2019-02-28T09:22:48.189Z,24.40
2019-02-28T09:25:22.072Z,25.33
2019-02-28T09:27:46.485Z,27.43
2019-02-28T09:30:22.160Z,24.83
2019-02-28T09:32:49.136Z,26.97
2019-02-28T09:35:16.195Z,27.10
2019-02-28T09:37:43.276Z,28.87
2019-02-28T09:40:10.325Z,26.57
2019-02-28T09:43:03.860Z,26.97
2019-02-28T09:45:32.275Z,27.33
2019-02-28T09:48:01.903Z,27.07
2019-02-28T09:50:26.589Z,25.90
2019-02-28T09:52:53.648Z,26.40
2019-02-28T09:55:20.673Z,27.27
2019-02-28T09:57:53.802Z,28.40
2019-02-28T10:00:15.749Z,27.37
2019-02-28T10:02:43.921Z,26.97
2019-02-28T10:05:11.659Z,27.60
2019-02-28T10:07:37.209Z,29.07
2019-02-28T10:10:04.399Z,27.90
2019-02-28T10:12:31.455Z,22.23
2019-02-28T10:15:00.652Z,23.60
2019-02-28T10:17:28.609Z,23.57
2019-02-28T10:19:53.089Z,21.30
2019-02-28T10:22:19.958Z,21.67
2019-02-28T10:24:46.999Z,22.93
2019-02-28T10:27:14.051Z,22.70
2019-02-28T10:29:41.908Z,19.83
2019-02-28T10:32:23.607Z,20.10
2019-02-28T10:34:50.663Z,19.23
2019-02-28T10:37:19.309Z,21.93
2019-02-28T10:39:44.821Z,22.17
2019-02-28T10:42:11.905Z,24.47
2019-02-28T10:44:39.212Z,21.30
2019-02-28T10:47:06.254Z,22.27
2019-02-28T10:49:33.254Z,23.83
2019-02-28T10:52:00.322Z,23.77
2019-02-28T10:54:27.661Z,23.23
2019-02-28T10:56:54.726Z,19.53
2019-02-28T10:59:24.462Z,22.97
2019-02-28T11:01:48.922Z,22.73
2019-02-28T11:04:16.030Z,23.63
2019-02-28T11:06:46.787Z,23.43
2019-02-28T11:09:12.312Z,22.90
2019-02-28T11:11:42.562Z,22.08
2019-02-28T11:14:08.873Z,24.10
2019-02-28T11:16:37.856Z,16.92
2019-02-28T11:19:04.826Z,18.80
2019-02-28T11:21:31.916Z,19.60
2019-02-28T11:23:59.053Z,17.33
2019-02-28T11:26:26.047Z,16.02
2019-02-28T11:28:53.199Z,16.75
2019-02-28T11:31:20.369Z,18.55
2019-02-28T11:33:48.018Z,17.45
2019-02-28T11:36:15.061Z,14.73
2019-02-28T11:38:42.217Z,13.62
2019-02-28T11:41:09.626Z,15.60
2019-02-28T11:43:38.405Z,14.55
2019-02-28T11:46:03.971Z,11.98
2019-02-28T11:48:31.069Z,12.75
2019-02-28T11:50:58.340Z,10.52
2019-02-28T11:53:25.426Z,9.15
2019-02-28T11:55:53.634Z,9.20
2019-02-28T11:58:20.256Z,8.73
2019-02-28T12:00:47.233Z,7.87
2019-02-28T12:03:14.352Z,5.62
2019-02-28T12:05:41.793Z,6.87
2019-02-28T12:08:10.323Z,8.02
2019-02-28T12:10:35.935Z,7.40
2019-02-28T12:13:03.356Z,6.35
2019-02-28T12:15:30.507Z,6.57
2019-02-28T12:18:03.679Z,6.47
2019-02-28T12:20:26.519Z,6.53
2019-02-28T12:22:52.363Z,6.62
2019-02-28T12:25:19.476Z,6.32
2019-02-28T12:27:46.973Z,7.37
2019-02-28T12:30:18.673Z,5.95
2019-02-28T12:32:44.198Z,5.43
2019-02-28T12:35:11.709Z,6.25
2019-02-28T12:37:38.860Z,6.40
2019-02-28T12:40:11.588Z,6.18
2019-02-28T12:42:38.690Z,6.60
2019-02-28T12:45:06.769Z,6.55
2019-02-28T12:47:33.915Z,6.15
2019-02-28T12:50:00.961Z,6.57
2019-02-28T12:52:28.109Z,6.53
2019-02-28T12:54:56.874Z,5.57
2019-02-28T12:57:23.136Z,6.12
2019-02-28T12:59:50.175Z,6.55
2019-02-28T13:02:17.192Z,7.50
2019-02-28T13:05:14.941Z,6.10
2019-02-28T13:07:38.972Z,6.55
2019-02-28T13:10:06.120Z,5.45
2019-02-28T13:12:33.172Z,6.37
2019-02-28T13:15:00.468Z,5.80
2019-02-28T13:17:28.361Z,6.70
2019-02-28T13:19:56.553Z,7.00
2019-02-28T13:22:23.314Z,6.35
2019-02-28T13:24:49.026Z,6.43
2019-02-28T13:27:16.179Z,7.10
2019-02-28T13:29:43.226Z,6.62
2019-02-28T13:32:10.395Z,7.68
2019-02-28T13:34:37.519Z,7.85
2019-02-28T13:37:04.782Z,7.32
2019-02-28T13:39:32.747Z,7.32
2019-02-28T13:42:03.014Z,6.85
2019-02-28T13:44:26.132Z,7.55
2019-02-28T13:46:53.250Z,6.93
2019-02-28T13:49:20.341Z,7.68
2019-02-28T13:51:47.385Z,6.40
2019-02-28T13:54:14.946Z,6.62
2019-02-28T13:56:43.116Z,7.15
2019-02-28T13:59:10.272Z,7.35
2019-02-28T14:01:37.214Z,8.15
2019-02-28T14:04:04.265Z,8.02
2019-02-28T14:06:32.447Z,7.78
2019-02-28T14:08:59.511Z,8.88
2019-02-28T14:11:26.639Z,8.57
2019-02-28T14:13:54.003Z,9.00
2019-02-28T14:16:26.339Z,8.52
2019-02-28T14:18:49.468Z,9.10
2019-02-28T14:21:16.471Z,9.52
2019-02-28T14:23:43.529Z,9.00
2019-02-28T14:26:11.382Z,8.70
2019-02-28T14:28:38.026Z,9.10
2019-02-28T14:31:05.126Z,8.20
2019-02-28T14:33:32.282Z,8.80
2019-02-28T14:35:59.428Z,8.98
2019-02-28T14:38:29.593Z,9.63
2019-02-28T14:40:53.762Z,9.20
2019-02-28T14:43:20.847Z,7.80
2019-02-28T14:45:47.899Z,8.20
2019-02-28T14:48:41.233Z,9.50
2019-02-28T14:51:32.304Z,8.45
2019-02-28T14:53:59.303Z,8.60
2019-02-28T14:56:26.352Z,8.00
2019-02-28T14:58:54.518Z,7.90
2019-02-28T15:01:20.571Z,8.95
2019-02-28T15:03:47.715Z,8.02
2019-02-28T15:06:14.859Z,8.35
2019-02-28T15:08:41.910Z,8.60
2019-02-28T15:11:10.297Z,7.82
2019-02-28T15:13:36.203Z,7.80
2019-02-28T15:16:03.247Z,8.18
2019-02-28T15:18:30.271Z,7.90
2019-02-28T15:20:58.318Z,7.50
2019-02-28T15:23:25.534Z,7.80
2019-02-28T15:25:54.194Z,7.95
2019-02-28T15:28:19.928Z,7.75
2019-02-28T15:30:47.081Z,7.93
2019-02-28T15:33:15.419Z,7.95
2019-02-28T15:35:42.523Z,7.87
2019-02-28T15:38:10.386Z,7.72
2019-02-28T15:40:37.641Z,8.07
2019-02-28T15:43:04.726Z,8.23
2019-02-28T15:45:31.830Z,8.50
2019-02-28T15:48:00.431Z,8.45
2019-02-28T15:50:26.548Z,7.97
2019-02-28T15:52:53.693Z,8.00
2019-02-28T15:55:21.213Z,7.90
2019-02-28T15:57:48.419Z,7.90
2019-02-28T16:00:15.573Z,8.40
2019-02-28T16:02:43.115Z,7.55
2019-02-28T16:05:09.756Z,7.97
2019-02-28T16:07:36.802Z,7.60
2019-02-28T16:10:04.315Z,7.93
2019-02-28T16:12:31.415Z,8.00
2019-02-28T16:14:58.430Z,7.97
2019-02-28T16:17:25.391Z,8.55
2019-02-28T16:19:53.261Z,7.62
2019-02-28T16:22:19.511Z,8.50
2019-02-28T16:24:46.670Z,8.68
2019-02-28T16:27:40.901Z,8.18
2019-02-28T16:33:25.884Z,8.23
2019-02-28T16:35:53.907Z,7.85
2019-02-28T16:38:20.951Z,9.05
2019-02-28T16:40:48.007Z,6.97
2019-02-28T16:43:17.482Z,7.62
2019-02-28T16:45:50.407Z,7.47
2019-02-28T16:48:17.457Z,7.43
2019-02-28T16:50:44.490Z,7.62
2019-02-28T16:53:15.300Z,7.37
2019-02-28T16:55:38.639Z,7.27
2019-02-28T16:58:05.764Z,6.85
2019-02-28T17:00:32.741Z,8.13
2019-02-28T17:03:24.081Z,11.67
2019-02-28T17:05:51.375Z,8.90
2019-02-28T17:08:19.438Z,12.37
2019-02-28T17:10:46.075Z,13.50
2019-02-28T17:13:29.925Z,13.97
2019-02-28T17:16:01.736Z,10.60
2019-02-28T17:18:28.320Z,8.53
2019-02-28T17:20:55.359Z,9.13
2019-02-28T17:23:22.416Z,8.63
2019-02-28T17:25:49.505Z,8.20
2019-02-28T17:28:18.207Z,8.60
2019-02-28T17:30:45.844Z,8.60
2019-02-28T17:33:12.447Z,8.97
2019-02-28T17:35:39.493Z,8.33
2019-02-28T17:38:06.553Z,9.47
2019-02-28T17:40:33.593Z,9.20
2019-02-28T17:43:01.049Z,8.43
2019-02-28T17:45:28.713Z,8.67
2019-02-28T17:48:12.911Z,8.70
2019-02-28T17:50:47.908Z,8.60
2019-02-28T17:53:20.885Z,8.97
2019-02-28T17:55:55.313Z,8.37
2019-02-28T17:58:33.156Z,8.73
2019-02-28T18:01:03.334Z,8.47
2019-02-28T18:03:34.234Z,8.73
2019-02-28T18:06:08.760Z,8.20
2019-02-28T18:08:58.423Z,7.70
2019-02-28T18:11:49.565Z,8.60
2019-02-28T18:14:53.691Z,12.27
2019-02-28T18:17:45.479Z,11.10
2019-02-28T18:20:14.549Z,9.83
2019-02-28T18:22:44.195Z,9.10
2019-02-28T18:25:22.144Z,10.23
2019-02-28T18:28:04.961Z,9.27
2019-02-28T18:30:50.140Z,10.40
2019-02-28T18:33:19.341Z,9.97
2019-02-28T18:35:44.385Z,8.07
2019-02-28T18:38:11.592Z,7.73
2019-02-28T18:40:38.858Z,8.83
2019-02-28T18:43:05.808Z,8.20
2019-02-28T18:45:56.874Z,8.90
2019-02-28T18:48:44.507Z,8.23
2019-02-28T18:51:11.603Z,9.37
2019-02-28T18:53:39.246Z,8.77
2019-02-28T18:56:07.308Z,9.17
2019-02-28T18:58:35.662Z,8.50
2019-02-28T19:01:06.783Z,8.10
2019-02-28T19:03:35.991Z,9.73
2019-02-28T19:06:08.324Z,8.60
2019-02-28T19:08:35.604Z,9.33
2019-02-28T19:11:03.493Z,8.83
2019-02-28T19:13:33.381Z,9.27
2019-02-28T19:16:00.713Z,8.30
2019-02-28T19:18:28.470Z,7.70
2019-02-28T19:20:55.785Z,9.73
2019-02-28T19:23:26.470Z,10.97
2019-02-28T19:25:57.594Z,10.70
2019-02-28T19:28:52.437Z,10.67
2019-02-28T19:31:47.238Z,10.37
2019-02-28T19:34:14.262Z,12.17
2019-02-28T19:36:44.019Z,11.43
2019-02-28T19:39:15.532Z,9.87
2019-02-28T19:41:44.665Z,10.77
2019-02-28T19:44:13.455Z,10.77
2019-02-28T19:46:44.059Z,10.63
2019-02-28T19:49:11.078Z,11.37
2019-02-28T19:51:40.423Z,12.00
2019-02-28T19:54:11.019Z,11.97
2019-02-28T19:56:38.294Z,17.53
2019-02-28T19:59:05.971Z,12.83
2019-02-28T20:01:34.642Z,11.80
2019-02-28T20:04:05.404Z,11.23
2019-02-28T20:06:32.612Z,13.40
2019-02-28T20:08:59.890Z,13.17
2019-02-28T20:11:27.215Z,13.03
2019-02-28T20:13:54.264Z,12.47
2019-02-28T20:16:21.321Z,11.60
2019-02-28T20:18:50.376Z,12.17
2019-02-28T20:21:15.621Z,12.77
2019-02-28T20:23:42.662Z,11.93
2019-02-28T20:26:38.418Z,12.00
2019-02-28T20:29:29.920Z,11.80
2019-02-28T20:31:56.908Z,11.00
2019-02-28T20:34:25.062Z,11.20
2019-02-28T20:36:53.552Z,12.13
2019-02-28T20:39:20.763Z,11.87
2019-02-28T20:41:47.916Z,12.13
2019-02-28T20:47:03.009Z,21.73
2019-02-28T20:49:31.391Z,18.47
2019-02-28T20:52:02.454Z,14.90
2019-02-28T20:54:29.473Z,14.57
2019-02-28T20:57:00.521Z,19.23
2019-02-28T20:59:29.043Z,22.63
2019-02-28T21:01:56.052Z,17.37
2019-02-28T21:04:23.203Z,16.93
2019-02-28T21:07:14.279Z,14.20
2019-02-28T21:09:44.860Z,25.47
2019-02-28T21:12:10.154Z,17.23
2019-02-28T21:14:37.164Z,15.57
2019-02-28T21:17:05.167Z,15.07
2019-02-28T21:19:32.422Z,18.67
2019-02-28T21:21:59.497Z,20.87
2019-02-28T21:24:26.535Z,31.63
2019-02-28T21:26:54.180Z,30.37
2019-02-28T21:29:21.239Z,23.67
2019-02-28T21:31:48.326Z,49.33
2019-02-28T21:34:15.530Z,32.47
2019-02-28T21:36:43.045Z,23.40
2019-02-28T21:39:10.083Z,18.27
2019-02-28T21:41:37.193Z,22.27
2019-02-28T21:44:04.188Z,17.27
2019-02-28T21:46:31.188Z,26.43
2019-02-28T21:48:58.231Z,18.67
2019-02-28T21:51:25.436Z,17.70
2019-02-28T21:53:52.533Z,27.97
2019-02-28T21:56:19.582Z,23.17
2019-02-28T21:58:46.653Z,17.77
2019-02-28T22:01:14.400Z,26.63
2019-02-28T22:03:41.652Z,21.83
2019-02-28T22:06:08.703Z,30.70
2019-02-28T22:08:43.279Z,15.30
2019-02-28T22:11:10.385Z,15.40
2019-02-28T22:13:37.369Z,16.60
2019-02-28T22:16:04.372Z,22.33
2019-02-28T22:18:31.417Z,25.93
2019-02-28T22:20:58.465Z,18.37
2019-02-28T22:23:25.496Z,17.70
2019-02-28T22:25:52.458Z,21.10
2019-02-28T22:28:19.513Z,12.93
2019-02-28T22:31:01.715Z,18.37
2019-02-28T22:33:32.752Z,21.47
2019-02-28T22:36:20.020Z,20.40
2019-02-28T22:38:48.765Z,17.17
2019-02-28T22:41:15.819Z,18.23
2019-02-28T22:43:45.465Z,18.23
2019-02-28T22:46:12.577Z,27.93
2019-02-28T22:48:39.779Z,22.37
2019-02-28T22:51:06.889Z,21.37
2019-02-28T22:53:33.928Z,17.10
2019-02-28T22:56:00.972Z,20.57
2019-02-28T22:58:28.027Z,20.47
2019-02-28T23:00:59.735Z,17.47
2019-02-28T23:03:26.827Z,13.57
2019-02-28T23:05:56.246Z,13.40
2019-02-28T23:08:23.286Z,15.23
2019-02-28T23:10:50.271Z,17.03
2019-02-28T23:13:17.273Z,16.93
2019-02-28T23:15:44.323Z,20.53
2019-02-28T23:18:11.376Z,18.27
2019-02-28T23:20:38.419Z,16.90
2019-02-28T23:23:05.492Z,12.50
2019-02-28T23:25:32.522Z,13.27
2019-02-28T23:28:05.451Z,15.30
2019-02-28T23:30:32.553Z,19.67
2019-02-28T23:32:59.705Z,18.97
2019-02-28T23:35:27.631Z,19.53
2019-02-28T23:37:54.621Z,20.17
2019-02-28T23:40:21.619Z,17.87
2019-02-28T23:42:48.615Z,13.43
2019-02-28T23:45:15.664Z,12.53
2019-02-28T23:47:42.659Z,14.27
2019-02-28T23:50:09.658Z,12.80
2019-02-28T23:52:36.713Z,13.43
2019-02-28T23:55:03.863Z,12.53
2019-02-28T23:57:30.906Z,14.53
2019-02-28T23:59:58.882Z,12.40
